CPX948 Details

Departure: Schiphol International Airport (EHAM)
Arrival: Washington Dulles International Airport (KIAD) at N/A
Route: BERGI UL602 MIMVA L602 NALAX L46 ODNEK N110 ERKIT L602 GOW GOMUP NATD HOIST N596A TAFFY ENE BAF HYPER7
Notes: SEASONAL FLIGHT | PERISHABLE CARGO


Current Weather Information
EHAM 231255Z 05009KT CAVOK 14/11 Q1014 NOSIG
KIAD 231253Z 28003KT 10SM FEW075 12/08 A3004 RMK AO2 T01170078